Time;durP1;ratioP1;P1;durP2;ratioP2;P2;SDS_P1;SDS_P2;PMS_P1;PMS_P2;Temp;Humidity;BMP_temperature;BMP_pressure;BME280_temperature;BME280_humidity;BME280_pressure;Samples;Min_cycle;Max_cycle;Signal;HPM_P1;HPM_P2
2022/09/12 00:02:16;;;;;;;13.13;4.25;;;;;;;12.73;89.88;96469.97;5072145;28;20045;-81
2022/09/12 00:04:42;;;;;;;17.05;4.93;;;;;;;12.76;89.80;96469.31;5072610;28;20052;-81
2022/09/12 00:07:09;;;;;;;13.23;4.30;;;;;;;12.79;89.58;96465.94;5072161;28;20056;-79
2022/09/12 00:09:35;;;;;;;13.90;4.15;;;;;;;12.80;90.00;96464.00;5072565;28;20598;-81
2022/09/12 00:12:04;;;;;;;14.68;4.60;;;;;;;12.83;88.92;96468.00;5072371;28;20491;-79
2022/09/12 00:14:31;;;;;;;13.93;4.78;;;;;;;12.79;89.05;96467.88;5072592;28;20048;-80
2022/09/12 00:16:58;;;;;;;10.15;3.88;;;;;;;12.76;89.15;96466.59;5072550;28;20479;-80
2022/09/12 00:19:24;;;;;;;12.65;4.22;;;;;;;12.75;89.39;96467.72;5071847;28;20044;-80
2022/09/12 00:21:51;;;;;;;18.23;5.30;;;;;;;12.72;89.57;96460.16;5069349;28;20055;-80
2022/09/12 00:24:17;;;;;;;11.27;4.18;;;;;;;12.58;89.25;96453.31;5071578;28;20041;-80
2022/09/12 00:26:44;;;;;;;14.77;4.72;;;;;;;12.50;89.44;96460.44;5072242;28;20045;-79
2022/09/12 00:29:15;;;;;;;11.35;3.90;;;;;;;12.52;89.53;96458.16;5071665;28;20051;-80
2022/09/12 00:31:42;;;;;;;12.20;4.25;;;;;;;12.56;89.64;96458.31;5072313;28;20040;-79
2022/09/12 00:34:09;;;;;;;21.13;5.72;;;;;;;12.51;89.76;96451.09;5071618;28;20044;-79
2022/09/12 00:36:36;;;;;;;11.40;4.18;;;;;;;12.54;89.52;96455.94;5072178;28;20051;-78
2022/09/12 00:39:03;;;;;;;10.68;4.25;;;;;;;12.50;89.55;96446.78;5071600;28;20102;-78
2022/09/12 00:41:32;;;;;;;10.85;4.28;;;;;;;12.38;89.73;96452.16;5072041;28;20044;-79
2022/09/12 00:44:01;;;;;;;14.30;4.60;;;;;;;12.18;89.89;96443.53;5071943;28;20051;-78
2022/09/12 00:46:38;;;;;;;9.70;3.85;;;;;;;12.26;89.67;96448.13;5071618;28;20542;-78
2022/09/12 00:49:07;;;;;;;13.82;4.50;;;;;;;12.33;89.36;96449.59;5071337;28;20530;-79
2022/09/12 00:51:36;;;;;;;10.25;4.15;;;;;;;12.34;89.73;96445.72;5071673;28;20047;-79
2022/09/12 00:54:10;;;;;;;14.75;4.72;;;;;;;12.21;89.83;96442.84;5071571;28;20059;-78
2022/09/12 00:56:39;;;;;;;11.18;4.10;;;;;;;12.17;90.04;96444.66;5071576;28;20059;-78
2022/09/12 00:59:11;;;;;;;14.80;4.75;;;;;;;12.09;90.11;96445.47;5071338;28;20044;-78
2022/09/12 01:01:41;;;;;;;9.13;3.80;;;;;;;12.11;89.95;96445.97;5071634;28;20052;-78
2022/09/12 01:04:09;;;;;;;12.45;4.20;;;;;;;12.08;90.20;96437.63;5071294;28;20052;-76
2022/09/12 01:06:39;;;;;;;14.52;4.60;;;;;;;12.00;90.58;96439.22;5071459;28;20634;-77
2022/09/12 01:09:07;;;;;;;14.30;4.43;;;;;;;12.00;90.76;96428.31;5071176;28;20044;-78
2022/09/12 01:11:37;;;;;;;12.85;4.38;;;;;;;11.91;90.79;96433.00;5071481;28;20055;-79
2022/09/12 01:14:03;;;;;;;17.52;5.15;;;;;;;11.89;91.00;96422.41;5070913;28;20131;-78
2022/09/12 01:16:30;;;;;;;15.77;4.68;;;;;;;11.92;90.85;96418.22;5071707;28;20045;-79
2022/09/12 01:19:08;;;;;;;17.05;4.93;;;;;;;11.94;90.69;96424.16;5071249;28;20049;-78
2022/09/12 01:21:44;;;;;;;13.50;4.40;;;;;;;12.04;90.24;96415.63;5071037;28;20117;-80
2022/09/12 01:24:42;;;;;;;19.35;4.78;;;;;;;12.02;90.04;96418.69;5070676;28;20045;-79
2022/09/12 01:27:28;;;;;;;13.80;4.40;;;;;;;12.07;89.92;96414.97;5070825;28;20131;-79
2022/09/12 01:30:27;;;;;;;17.35;4.70;;;;;;;12.08;90.33;96411.13;5071035;28;20055;-79
2022/09/12 01:33:15;;;;;;;17.77;4.35;;;;;;;12.11;90.28;96410.47;5070675;28;20041;-77
2022/09/12 01:35:49;;;;;;;18.10;4.15;;;;;;;12.08;90.10;96405.66;5070761;28;20068;-78
2022/09/12 01:38:25;;;;;;;20.63;5.05;;;;;;;12.08;89.50;96411.13;5070215;28;20590;-79
2022/09/12 01:40:59;;;;;;;13.70;4.22;;;;;;;12.06;89.57;96404.38;5070956;28;20072;-78
2022/09/12 01:43:33;;;;;;;14.40;3.90;;;;;;;12.05;89.45;96410.97;5070536;28;20491;-78
2022/09/12 01:46:09;;;;;;;12.68;4.25;;;;;;;12.06;88.72;96407.94;5070698;28;20045;-78
2022/09/12 01:48:39;;;;;;;13.43;4.18;;;;;;;12.03;88.76;96408.56;5070709;28;20403;-79
2022/09/12 01:51:13;;;;;;;13.90;4.03;;;;;;;12.00;88.81;96404.53;5069980;28;20048;-80
2022/09/12 01:53:44;;;;;;;14.77;4.25;;;;;;;11.97;89.20;96405.22;5070517;28;20455;-80
2022/09/12 01:56:15;;;;;;;14.65;4.20;;;;;;;11.97;89.24;96396.22;5069584;28;20048;-80
2022/09/12 01:58:47;;;;;;;16.15;4.15;;;;;;;11.94;89.29;96400.41;5070386;28;20074;-79
2022/09/12 02:01:20;;;;;;;13.85;4.40;;;;;;;11.90;89.17;96398.63;5069879;28;20048;-79
2022/09/12 02:03:52;;;;;;;15.95;4.35;;;;;;;11.82;89.12;96391.28;5070600;28;20048;-78
2022/09/12 02:06:22;;;;;;;13.27;4.22;;;;;;;11.75;89.29;96392.56;5069939;28;20048;-78
2022/09/12 02:08:53;;;;;;;15.05;4.55;;;;;;;11.74;89.67;96396.44;5070289;28;20051;-79
2022/09/12 02:11:21;;;;;;;11.80;4.00;;;;;;;11.75;89.58;96392.56;5070009;28;20041;-78
2022/09/12 02:13:54;;;;;;;12.48;4.32;;;;;;;11.76;89.22;96394.16;5070376;28;20047;-79
2022/09/12 02:16:29;;;;;;;12.45;3.67;;;;;;;11.78;89.53;96388.38;5069562;28;20072;-77
2022/09/12 02:19:00;;;;;;;10.25;3.63;;;;;;;11.82;89.40;96391.28;5070305;28;20048;-80
2022/09/12 02:21:31;;;;;;;12.45;3.67;;;;;;;11.74;88.25;96388.25;5069160;28;20051;-80
2022/09/12 02:24:01;;;;;;;11.75;3.85;;;;;;;11.71;87.73;96386.16;5070274;28;20079;-80
2022/09/12 02:26:34;;;;;;;16.65;4.55;;;;;;;11.63;87.77;96386.94;5069998;28;20549;-80
2022/09/12 02:29:01;;;;;;;12.52;3.70;;;;;;;11.60;88.25;96384.88;5070144;28;20403;-79
2022/09/12 02:31:37;;;;;;;10.73;3.45;;;;;;;11.61;88.48;96381.03;5070110;28;20055;-79
2022/09/12 02:34:13;;;;;;;21.08;4.90;;;;;;;11.60;88.34;96379.44;5069599;28;20055;-79
2022/09/12 02:36:49;;;;;;;10.82;3.78;;;;;;;11.53;87.72;96376.38;5070391;28;20036;-80
2022/09/12 02:39:18;;;;;;;17.58;4.70;;;;;;;11.37;87.90;96375.28;5069602;28;20113;-79
2022/09/12 02:41:45;;;;;;;17.63;4.85;;;;;;;11.17;89.28;96377.56;5070163;28;20121;-79
2022/09/12 02:44:12;;;;;;;15.88;4.07;;;;;;;11.28;89.27;96371.78;5069713;28;20063;-79
2022/09/12 02:46:44;;;;;;;13.20;3.92;;;;;;;11.32;89.81;96364.53;5070002;28;20044;-80
2022/09/12 02:49:10;;;;;;;10.85;3.85;;;;;;;11.32;90.00;96373.50;5069532;28;20048;-79
2022/09/12 02:51:37;;;;;;;19.25;4.82;;;;;;;11.21;89.99;96367.59;5069928;28;20040;-81
2022/09/12 02:54:06;;;;;;;14.95;4.15;;;;;;;11.21;89.75;96367.59;5069592;28;20048;-80
2022/09/12 02:56:33;;;;;;;11.32;3.50;;;;;;;11.24;89.72;96364.22;5069690;28;20127;-79
2022/09/12 02:59:05;;;;;;;11.55;3.85;;;;;;;11.30;89.87;96359.41;5069869;28;20048;-79
2022/09/12 03:01:49;;;;;;;12.00;3.92;;;;;;;11.33;89.62;96363.41;5069852;28;20044;-80
2022/09/12 03:04:39;;;;;;;12.85;3.50;;;;;;;11.30;89.42;96366.78;5069448;28;20052;-80
2022/09/12 03:07:14;;;;;;;14.48;3.85;;;;;;;11.28;89.79;96364.41;5069454;28;20051;-80
2022/09/12 03:09:49;;;;;;;12.38;3.65;;;;;;;11.29;88.78;96366.00;5070048;28;20037;-80
2022/09/12 03:12:25;;;;;;;15.95;4.47;;;;;;;11.23;88.51;96365.38;5069356;28;20052;-79
2022/09/12 03:15:12;;;;;;;18.17;4.50;;;;;;;11.22;88.71;96361.03;5069754;28;20049;-79
2022/09/12 03:17:56;;;;;;;17.80;4.45;;;;;;;11.20;88.98;96366.00;5069648;28;20056;-80
2022/09/12 03:20:35;;;;;;;18.40;4.43;;;;;;;11.26;89.10;96365.84;5069236;28;20040;-80
2022/09/12 03:23:05;;;;;;;12.82;3.85;;;;;;;11.24;89.24;96361.50;5069356;28;20040;-79
2022/09/12 03:25:36;;;;;;;12.75;4.47;;;;;;;11.20;89.51;96366.00;5069657;28;20052;-80
2022/09/12 03:28:07;;;;;;;17.42;3.95;;;;;;;11.15;89.58;96363.44;5069139;28;20558;-79
2022/09/12 03:30:38;;;;;;;15.57;4.05;;;;;;;11.14;89.64;96370.00;5069544;28;20127;-79
2022/09/12 03:33:06;;;;;;;13.68;4.18;;;;;;;11.17;89.72;96374.84;5069332;28;20052;-80
2022/09/12 03:35:33;;;;;;;17.05;4.00;;;;;;;11.18;89.96;96368.25;5072961;28;20048;-81
2022/09/12 03:37:59;;;;;;;13.25;4.10;;;;;;;11.10;89.82;96365.53;5073250;28;20044;-78
2022/09/12 03:40:26;;;;;;;17.50;4.55;;;;;;;10.99;89.34;96359.59;5072676;28;20469;-79
2022/09/12 03:42:52;;;;;;;14.32;4.03;;;;;;;10.96;89.10;96365.66;5073045;28;20052;-80
2022/09/12 03:45:19;;;;;;;17.45;4.53;;;;;;;11.00;89.13;96369.34;5072657;28;20404;-80
2022/09/12 03:47:45;;;;;;;15.68;4.15;;;;;;;11.02;89.65;96367.13;5072885;28;20048;-79
2022/09/12 03:50:13;;;;;;;13.90;3.78;;;;;;;11.01;89.52;96370.16;5072376;28;20044;-79
2022/09/12 03:52:39;;;;;;;21.90;4.80;;;;;;;10.97;89.72;96372.75;5052982;28;20044;-79
2022/09/12 03:55:07;;;;;;;17.80;4.18;;;;;;;10.88;89.24;96369.19;5052485;28;20048;-79
2022/09/12 03:57:33;;;;;;;14.45;3.85;;;;;;;10.89;89.06;96370.78;5072391;28;20047;-80
2022/09/12 04:00:00;;;;;;;17.60;3.92;;;;;;;10.88;89.08;96366.47;5072779;28;20045;-80
2022/09/12 04:02:27;;;;;;;17.40;4.10;;;;;;;10.87;89.10;96373.06;5072451;28;20101;-78
2022/09/12 04:04:54;;;;;;;13.02;4.18;;;;;;;10.86;89.43;96360.56;5072722;28;20503;-79
2022/09/12 04:07:21;;;;;;;13.75;3.60;;;;;;;10.93;89.40;96371.78;5072256;28;20499;-81
2022/09/12 04:09:48;;;;;;;18.13;4.55;;;;;;;11.01;89.74;96368.22;5072610;28;20075;-80
2022/09/12 04:12:14;;;;;;;15.45;3.80;;;;;;;11.04;89.61;96366.81;5072195;28;20636;-78
2022/09/12 04:14:41;;;;;;;14.38;3.85;;;;;;;11.02;89.59;96369.06;5072758;28;20047;-80
2022/09/12 04:17:08;;;;;;;12.70;3.65;;;;;;;11.00;89.55;96366.63;5072087;28;20049;-77
2022/09/12 04:19:34;;;;;;;19.20;4.53;;;;;;;10.93;89.00;96366.31;5072607;28;20052;-77
2022/09/12 04:22:01;;;;;;;8.35;3.00;;;;;;;10.89;88.98;96365.34;5072401;28;20696;-78
2022/09/12 04:24:29;;;;;;;17.50;4.28;;;;;;;10.84;88.87;96362.78;5072424;28;20399;-79
2022/09/12 04:26:55;;;;;;;19.38;4.22;;;;;;;10.84;88.99;96365.50;5072406;28;20045;-80
2022/09/12 04:29:22;;;;;;;6.35;2.80;;;;;;;10.81;88.95;96360.72;5071970;28;20057;-78
2022/09/12 04:31:48;;;;;;;15.52;4.28;;;;;;;10.64;89.43;96365.00;5072200;28;20052;-78
2022/09/12 04:34:15;;;;;;;18.33;4.40;;;;;;;10.45;90.07;96354.41;5072033;28;20051;-78
2022/09/12 04:36:42;;;;;;;21.25;4.63;;;;;;;10.55;89.97;96360.66;5072221;28;20064;-77
2022/09/12 04:39:08;;;;;;;19.55;4.78;;;;;;;10.55;89.99;96361.47;5071939;28;20071;-79
2022/09/12 04:41:38;;;;;;;26.05;5.72;;;;;;;10.45;90.28;96367.22;5071818;28;20268;-79
2022/09/12 04:44:06;;;;;;;18.95;4.43;;;;;;;10.42;89.97;96370.56;5071617;28;20052;-78
2022/09/12 04:46:35;;;;;;;15.50;4.05;;;;;;;10.50;89.90;96367.06;5071633;28;20045;-79
2022/09/12 04:49:02;;;;;;;12.27;4.20;;;;;;;10.45;90.20;96368.00;5071730;28;20045;-76
2022/09/12 04:51:30;;;;;;;12.63;4.20;;;;;;;10.47;90.19;96367.69;5071942;28;20063;-78
2022/09/12 04:53:59;;;;;;;15.07;4.20;;;;;;;10.45;90.07;96357.13;5072011;28;20056;-79
2022/09/12 04:56:26;;;;;;;16.45;4.32;;;;;;;10.36;90.16;96358.22;5071433;28;20044;-79
2022/09/12 04:58:56;;;;;;;17.40;4.38;;;;;;;10.23;90.85;96357.16;5071850;28;20052;-77
2022/09/12 05:01:23;;;;;;;22.20;5.50;;;;;;;10.26;90.99;96353.06;5071298;28;20043;-79
2022/09/12 05:03:51;;;;;;;20.83;5.55;;;;;;;10.08;91.62;96354.91;5071283;28;20036;-79
2022/09/12 05:06:20;;;;;;;14.95;4.68;;;;;;;10.19;91.57;96362.47;5071311;28;20496;-78
2022/09/12 05:08:47;;;;;;;16.45;5.07;;;;;;;10.19;91.41;96364.38;5071929;28;20407;-79
2022/09/12 05:11:16;;;;;;;18.35;5.00;;;;;;;10.26;91.43;96369.38;5071432;28;20048;-78
2022/09/12 05:13:44;;;;;;;19.70;5.43;;;;;;;10.28;91.39;96367.94;5071568;28;20037;-77
2022/09/12 05:16:14;;;;;;;19.27;5.20;;;;;;;10.38;91.37;96372.28;5071398;28;20656;-79
2022/09/12 05:18:41;;;;;;;15.88;4.30;;;;;;;10.49;91.22;96373.59;5071552;28;20064;-79
2022/09/12 05:21:11;;;;;;;11.60;4.45;;;;;;;10.55;90.89;96372.34;5070820;28;20051;-78
2022/09/12 05:23:38;;;;;;;14.05;4.65;;;;;;;10.61;90.85;96371.09;5071503;28;20040;-78
2022/09/12 05:26:06;;;;;;;13.85;4.72;;;;;;;10.68;90.46;96374.13;5070673;28;20461;-78
2022/09/12 05:28:36;;;;;;;15.60;4.88;;;;;;;10.73;90.32;96384.06;5071442;28;20051;-79
2022/09/12 05:31:04;;;;;;;17.48;4.90;;;;;;;10.76;90.75;96388.09;5070987;28;20123;-78
2022/09/12 05:33:33;;;;;;;12.75;4.35;;;;;;;10.85;90.67;96383.44;5071269;28;20536;-79
2022/09/12 05:36:00;;;;;;;14.52;4.55;;;;;;;10.89;91.14;96387.94;5071179;28;20069;-79
2022/09/12 05:38:28;;;;;;;10.63;3.63;;;;;;;10.93;90.96;96390.84;5070899;28;20044;-77
2022/09/12 05:40:55;;;;;;;15.57;4.72;;;;;;;10.87;90.47;96386.66;5071067;28;20040;-79
2022/09/12 05:43:21;;;;;;;16.00;4.65;;;;;;;10.88;90.39;96386.34;5070666;28;20440;-80
2022/09/12 05:45:48;;;;;;;17.73;5.20;;;;;;;10.87;90.39;96394.84;5071028;28;20059;-77
2022/09/12 05:48:15;;;;;;;13.73;4.28;;;;;;;10.94;90.30;96395.16;5070979;28;20458;-79
2022/09/12 05:50:43;;;;;;;15.90;5.30;;;;;;;11.00;90.52;96398.53;5070666;28;20075;-79
2022/09/12 05:53:09;;;;;;;18.00;5.07;;;;;;;11.10;91.07;96399.00;5070326;28;20053;-79
2022/09/12 05:55:36;;;;;;;15.98;4.57;;;;;;;11.14;90.69;96397.25;5070984;28;20040;-79
2022/09/12 05:58:03;;;;;;;15.48;4.53;;;;;;;11.07;90.69;96399.69;5069612;28;20072;-78
2022/09/12 06:00:29;;;;;;;18.52;4.43;;;;;;;11.08;90.82;96397.75;5070856;28;20047;-77
2022/09/12 06:02:56;;;;;;;16.30;5.03;;;;;;;11.09;90.90;96397.41;5070738;28;20497;-78
2022/09/12 06:05:23;;;;;;;15.88;4.45;;;;;;;11.24;90.82;96388.78;5070301;28;20097;-78
2022/09/12 06:07:51;;;;;;;10.90;4.32;;;;;;;11.35;90.54;96399.34;5070515;28;20048;-79
2022/09/12 06:10:18;;;;;;;14.38;4.85;;;;;;;11.40;90.36;96393.72;5070359;28;20075;-78
2022/09/12 06:12:44;;;;;;;20.50;5.32;;;;;;;11.52;89.83;96393.88;5070696;28;20060;-79
2022/09/12 06:15:11;;;;;;;15.30;4.57;;;;;;;11.63;89.46;96384.22;5070400;28;20052;-79
2022/09/12 06:17:37;;;;;;;15.23;4.32;;;;;;;11.70;89.01;96392.72;5070611;28;20048;-78
2022/09/12 06:20:04;;;;;;;17.00;4.68;;;;;;;11.79;89.04;96386.44;5069778;28;20126;-79
2022/09/12 06:22:31;;;;;;;12.73;4.25;;;;;;;11.88;88.95;96390.78;5070367;28;20495;-79
2022/09/12 06:24:59;;;;;;;15.82;4.63;;;;;;;11.94;89.16;96383.22;5072004;28;20095;-79
2022/09/12 06:27:25;;;;;;;12.35;4.28;;;;;;;12.01;89.20;96394.47;5071522;28;20032;-79
2022/09/12 06:29:52;;;;;;;35.28;7.07;;;;;;;12.07;89.02;96392.34;5068203;28;20045;-80
2022/09/12 06:32:18;;;;;;;14.93;4.57;;;;;;;12.12;88.89;96389.44;5072956;28;20051;-78
2022/09/12 06:34:47;;;;;;;16.10;4.63;;;;;;;12.25;88.57;96402.06;5066602;28;20048;-79
2022/09/12 06:37:13;;;;;;;12.18;4.15;;;;;;;12.17;87.79;96398.25;5049686;28;20045;-79
2022/09/12 06:39:40;;;;;;;13.75;4.35;;;;;;;12.16;87.83;96395.81;5069750;28;20053;-79
2022/09/12 06:42:08;;;;;;;17.80;4.63;;;;;;;12.32;87.85;96399.63;5069423;28;20055;-78
2022/09/12 06:44:34;;;;;;;23.85;5.82;;;;;;;12.18;87.73;96399.84;5069256;28;20052;-79
2022/09/12 06:47:01;;;;;;;12.95;3.83;;;;;;;12.47;87.45;96401.78;5069862;28;20076;-80
2022/09/12 06:49:27;;;;;;;13.35;4.10;;;;;;;12.57;86.84;96397.09;5070604;28;20078;-79
2022/09/12 06:51:54;;;;;;;14.60;4.65;;;;;;;12.64;86.75;96405.59;5069719;28;20048;-80
2022/09/12 06:54:21;;;;;;;10.32;3.63;;;;;;;12.74;86.15;96402.47;5069173;28;20056;-75
2022/09/12 06:56:48;;;;;;;14.60;4.18;;;;;;;12.67;85.44;96402.97;5069925;28;20059;-80
2022/09/12 06:59:16;;;;;;;14.50;3.75;;;;;;;12.67;84.59;96400.25;5069258;28;20128;-78
2022/09/12 07:01:43;;;;;;;13.73;4.03;;;;;;;12.53;86.07;96405.16;5069231;28;20377;-76
2022/09/12 07:04:10;;;;;;;16.67;4.30;;;;;;;12.51;85.37;96399.22;5069332;28;20041;-78
2022/09/12 07:06:38;;;;;;;13.07;3.83;;;;;;;12.77;84.93;96396.34;5069527;28;20040;-77
2022/09/12 07:09:06;;;;;;;7.15;2.95;;;;;;;12.98;83.87;96405.38;5072171;28;20106;-79
2022/09/12 07:11:35;;;;;;;11.73;3.58;;;;;;;13.26;82.98;96400.22;5073650;28;20044;-78
2022/09/12 07:14:03;;;;;;;12.32;3.50;;;;;;;14.22;77.53;96402.81;5073335;28;20044;-78
2022/09/12 07:16:32;;;;;;;12.93;3.47;;;;;;;15.32;73.29;96397.28;5073676;28;20052;-78
2022/09/12 07:19:00;;;;;;;14.82;3.35;;;;;;;16.19;69.73;96401.28;5073316;28;20052;-77
2022/09/12 07:21:28;;;;;;;10.18;3.25;;;;;;;17.04;67.68;96402.59;5071058;28;20048;-77
2022/09/12 07:23:56;;;;;;;13.70;3.38;;;;;;;17.92;65.13;96394.63;5073509;28;20045;-78
2022/09/12 07:26:24;;;;;;;11.80;3.30;;;;;;;18.73;60.92;96401.97;5072945;28;20059;-76
2022/09/12 07:28:51;;;;;;;14.50;3.47;;;;;;;18.81;59.62;96398.19;5073060;28;20130;-78
2022/09/12 07:31:18;;;;;;;9.63;2.90;;;;;;;19.02;58.07;96395.75;5071835;28;20082;-76
2022/09/12 07:33:46;;;;;;;13.15;3.13;;;;;;;18.87;58.58;96404.19;5073133;28;20384;-76
2022/09/12 07:36:15;;;;;;;12.77;3.28;;;;;;;19.11;60.13;96397.44;5072771;28;20056;-77
2022/09/12 07:38:42;;;;;;;17.17;3.78;;;;;;;19.17;56.47;96407.00;5073103;28;20036;-79
2022/09/12 07:41:12;;;;;;;12.27;3.03;;;;;;;19.27;59.33;96400.84;5072526;28;20388;-79
2022/09/12 07:43:38;;;;;;;12.90;2.70;;;;;;;19.51;56.13;96400.34;5073071;28;20487;-75
2022/09/12 07:46:06;;;;;;;9.77;2.40;;;;;;;19.70;53.88;96401.41;5072529;28;20053;-76
2022/09/12 07:48:33;;;;;;;12.45;3.05;;;;;;;19.41;54.86;96397.44;5072852;28;20063;-76
2022/09/12 07:51:03;;;;;;;12.32;3.17;;;;;;;19.21;54.17;96397.59;5072736;28;20072;-74
2022/09/12 07:53:32;;;;;;;13.43;2.95;;;;;;;18.43;57.44;96394.38;5072514;28;20044;-78
2022/09/12 07:56:01;;;;;;;10.82;2.60;;;;;;;18.79;60.29;96400.50;5072496;28;20439;-75
2022/09/12 07:58:29;;;;;;;8.65;1.88;;;;;;;18.75;60.57;96402.44;5070476;28;20044;-76
2022/09/12 08:01:01;;;;;;;15.23;3.42;;;;;;;18.72;57.77;96392.13;5072699;28;20509;-77
2022/09/12 08:03:28;;;;;;;8.25;2.33;;;;;;;18.78;59.05;96396.16;5072813;28;20052;-77
2022/09/12 08:05:54;;;;;;;10.82;2.80;;;;;;;18.69;58.75;96398.38;5072847;28;20131;-78
2022/09/12 08:08:22;;;;;;;9.55;2.90;;;;;;;18.74;60.85;96395.28;5072278;28;20055;-76
2022/09/12 08:10:49;;;;;;;13.82;3.58;;;;;;;18.29;59.62;96404.38;5072709;28;20049;-75
2022/09/12 08:13:15;;;;;;;10.30;2.90;;;;;;;18.36;60.86;96394.25;5072387;28;20049;-75
2022/09/12 08:15:41;;;;;;;9.45;2.80;;;;;;;17.84;61.65;96403.91;5072453;28;20485;-77
2022/09/12 08:18:08;;;;;;;10.65;2.85;;;;;;;17.73;62.93;96402.91;5072286;28;20822;-75
2022/09/12 08:20:35;;;;;;;12.52;3.33;;;;;;;17.89;63.74;96394.56;5071546;28;20044;-78
2022/09/12 08:23:02;;;;;;;11.73;3.22;;;;;;;17.55;64.88;96401.72;5071899;28;20538;-74
2022/09/12 08:25:29;;;;;;;9.07;2.80;;;;;;;17.55;64.92;96407.25;5072727;28;20090;-77
2022/09/12 08:27:56;;;;;;;12.88;3.78;;;;;;;17.78;64.71;96405.38;5072619;28;20048;-76
2022/09/12 08:30:22;;;;;;;12.80;3.20;;;;;;;17.96;64.23;96405.72;5071976;28;20047;-77
2022/09/12 08:32:49;;;;;;;7.45;2.70;;;;;;;18.05;65.92;96408.25;5072405;28;20053;-76
2022/09/12 08:35:15;;;;;;;13.25;3.60;;;;;;;18.33;64.01;96405.22;5071985;28;20037;-77
2022/09/12 08:37:42;;;;;;;12.75;3.72;;;;;;;18.72;63.30;96401.19;5072047;28;20044;-76
2022/09/12 08:40:17;;;;;;;10.32;3.05;;;;;;;18.92;62.47;96407.41;5071757;28;20044;-76
2022/09/12 08:42:57;;;;;;;12.45;4.60;;;;;;;19.12;61.40;96404.56;5072177;28;20127;-77
2022/09/12 08:45:33;;;;;;;11.75;3.60;;;;;;;19.30;63.91;96406.38;5071885;28;20036;-78
2022/09/12 08:48:04;;;;;;;8.88;3.47;;;;;;;19.49;62.09;96408.22;5071966;28;20052;-75
2022/09/12 08:50:31;;;;;;;13.65;4.30;;;;;;;19.66;61.29;96406.09;5071969;28;20044;-78
2022/09/12 08:53:01;;;;;;;14.00;4.30;;;;;;;19.32;60.43;96408.78;5073203;28;20087;-77
2022/09/12 08:55:32;;;;;;;10.15;3.25;;;;;;;19.51;61.55;96411.41;5071501;28;20101;-76
2022/09/12 08:58:01;;;;;;;12.15;4.20;;;;;;;19.68;62.28;96403.75;5071718;28;20049;-75
2022/09/12 09:00:39;;;;;;;10.55;4.18;;;;;;;19.77;61.94;96412.53;5071014;28;20047;-76
2022/09/12 09:03:49;;;;;;;13.25;4.78;;;;;;;19.76;61.88;96405.44;5071234;28;20127;-79
2022/09/12 09:06:31;;;;;;;11.50;4.13;;;;;;;19.77;61.76;96395.97;5071073;28;20044;-75
2022/09/12 09:09:05;;;;;;;12.60;4.70;;;;;;;19.70;61.00;96407.75;5071618;28;20508;-76
2022/09/12 09:11:42;;;;;;;16.80;5.50;;;;;;;19.69;60.29;96399.84;5071468;28;20056;-79
2022/09/12 09:17:26;;;;;;;11.52;5.15;;;;;;;18.94;61.62;96404.28;5028571;28;20114;-75
2022/09/12 09:19:59;;;;;;;15.50;5.57;;;;;;;18.79;61.19;96394.97;5028875;28;20049;-76
2022/09/12 09:22:34;;;;;;;;;;;;;;;18.90;61.69;96401.47;5048418;28;20040;-75
2022/09/12 09:25:04;;;;;;;10.20;4.35;;;;;;;19.09;62.91;96397.00;5073254;28;19970;-75
2022/09/12 09:27:36;;;;;;;8.32;4.25;;;;;;;19.13;61.65;96390.38;5070872;28;20044;-75
2022/09/12 09:30:04;;;;;;;10.60;4.80;;;;;;;18.70;62.01;96391.69;5070732;28;20052;-74
2022/09/12 09:32:36;;;;;;;15.15;5.47;;;;;;;18.71;62.87;96387.78;5070708;28;20041;-76
2022/09/12 09:35:15;;;;;;;11.10;4.57;;;;;;;19.04;64.32;96390.63;5070650;28;20060;-77
2022/09/12 09:37:43;;;;;;;13.32;5.05;;;;;;;19.10;61.11;96382.03;5071108;28;20048;-77
2022/09/12 09:40:21;;;;;;;10.52;4.47;;;;;;;19.32;62.35;96383.94;5070417;28;20414;-76
2022/09/12 09:42:56;;;;;;;14.07;4.95;;;;;;;19.54;63.25;96380.28;5071149;28;20048;-75
2022/09/12 09:45:27;;;;;;;12.07;3.90;;;;;;;19.67;58.27;96385.59;5070569;28;20048;-76
2022/09/12 09:48:00;;;;;;;14.60;5.63;;;;;;;19.87;61.81;96386.22;5070894;28;20551;-76
2022/09/12 09:50:27;;;;;;;13.98;4.85;;;;;;;19.87;55.77;96378.72;5070406;28;20047;-77
2022/09/12 09:52:57;;;;;;;15.98;4.75;;;;;;;20.02;57.13;96386.00;5070740;28;20052;-77
2022/09/12 09:55:30;;;;;;;12.57;4.22;;;;;;;20.04;55.08;96383.63;5070028;28;20044;-78
2022/09/12 09:57:56;;;;;;;9.10;3.28;;;;;;;20.33;58.69;96383.94;5070840;28;20044;-76
2022/09/12 10:00:30;;;;;;;14.45;4.00;;;;;;;20.35;58.43;96389.88;5070153;28;20044;-74
2022/09/12 10:03:15;;;;;;;17.02;4.50;;;;;;;20.35;56.08;96387.09;5070543;28;20040;-75
2022/09/12 10:05:46;;;;;;;17.17;4.63;;;;;;;20.39;55.91;96379.66;5068505;28;20036;-78
2022/09/12 10:08:21;;;;;;;10.85;3.63;;;;;;;20.39;55.16;96381.63;5070030;28;20507;-78
2022/09/12 10:10:54;;;;;;;13.55;4.03;;;;;;;20.32;55.65;96374.06;5070460;28;20090;-77
2022/09/12 10:13:23;;;;;;;;;;;;;;;19.95;53.88;96374.88;5070357;28;20555;-77
2022/09/12 10:15:58;;;;;;;14.93;4.13;;;;;;;20.04;57.48;96375.34;5070534;28;19924;-76
2022/09/12 10:18:41;;;;;;;16.40;4.90;;;;;;;20.04;57.62;96372.59;5070055;28;20071;-80
2022/09/12 10:21:28;;;;;;;13.00;3.73;;;;;;;19.84;52.74;96368.44;5070126;28;20044;-75
2022/09/12 10:24:02;;;;;;;11.88;3.38;;;;;;;20.07;56.20;96369.06;5071140;28;20068;-77
2022/09/12 10:26:34;;;;;;;12.63;4.05;;;;;;;20.18;57.24;96360.09;5070114;28;20052;-75
2022/09/12 10:29:10;;;;;;;11.00;3.72;;;;;;;20.29;57.54;96372.03;5070089;28;20701;-76
2022/09/12 10:31:46;;;;;;;12.07;3.75;;;;;;;20.25;54.04;96366.47;5070344;28;20453;-75
2022/09/12 10:34:26;;;;;;;13.80;3.78;;;;;;;20.30;53.86;96357.03;5069776;28;20052;-78
2022/09/12 10:36:58;;;;;;;12.65;3.80;;;;;;;20.31;54.71;96356.69;5070250;28;20084;-75
2022/09/12 10:39:24;;;;;;;12.18;3.20;;;;;;;20.31;54.15;96353.13;5069701;28;20040;-75
2022/09/12 10:41:51;;;;;;;13.73;4.15;;;;;;;20.29;57.43;96355.47;5070044;28;20076;-75
2022/09/12 10:44:24;;;;;;;11.60;3.28;;;;;;;20.40;56.92;96348.03;5069284;28;20052;-75
2022/09/12 10:46:53;;;;;;;10.43;3.20;;;;;;;20.45;55.06;96353.22;5069980;28;20052;-78
2022/09/12 10:49:23;;;;;;;9.55;3.10;;;;;;;20.36;56.06;96347.25;5069631;28;20102;-77
2022/09/12 10:51:50;;;;;;;13.57;3.65;;;;;;;20.45;55.90;96347.69;5069789;28;20523;-79
2022/09/12 10:54:19;;;;;;;14.13;4.13;;;;;;;20.30;55.10;96341.25;5069516;28;20415;-78
2022/09/12 10:56:57;;;;;;;13.70;3.90;;;;;;;20.35;55.00;96337.34;5069984;28;20454;-78
2022/09/12 10:59:36;;;;;;;10.45;3.28;;;;;;;20.32;54.37;96343.63;5069378;28;20044;-78
2022/09/12 11:02:19;;;;;;;13.75;3.60;;;;;;;20.07;55.46;96348.94;5069502;28;20052;-77
2022/09/12 11:04:56;;;;;;;12.45;3.45;;;;;;;20.02;53.77;96344.53;5069870;28;20098;-74
2022/09/12 11:07:42;;;;;;;10.55;3.30;;;;;;;20.12;55.42;96345.03;5069512;28;20529;-77
2022/09/12 11:10:25;;;;;;;12.15;3.42;;;;;;;20.06;55.75;96344.59;5069443;28;20048;-75
2022/09/12 11:13:02;;;;;;;9.82;3.08;;;;;;;20.15;56.20;96347.84;5069904;28;20124;-75
2022/09/12 11:15:39;;;;;;;10.45;3.17;;;;;;;20.27;53.55;96346.75;5069405;28;20048;-75
2022/09/12 11:18:18;;;;;;;12.40;3.08;;;;;;;20.31;55.58;96342.06;5069445;28;20052;-75
2022/09/12 11:21:15;;;;;;;17.02;4.20;;;;;;;20.21;53.33;96342.75;5069587;28;20052;-75
2022/09/12 11:24:04;;;;;;;14.43;3.55;;;;;;;20.42;57.02;96331.09;5068795;28;20515;-76
2022/09/12 11:26:56;;;;;;;9.65;3.15;;;;;;;20.15;54.99;96333.19;5069332;28;20040;-74
2022/09/12 11:29:37;;;;;;;14.82;3.70;;;;;;;20.22;54.85;96328.53;5067203;28;20047;-76
2022/09/12 11:32:23;;;;;;;12.75;3.50;;;;;;;20.05;55.42;96335.50;5069113;28;20051;-76
2022/09/12 11:34:59;;;;;;;15.10;3.50;;;;;;;20.33;56.34;96332.19;5069466;28;20052;-74
2022/09/12 11:37:42;;;;;;;14.70;4.15;;;;;;;20.36;53.75;96327.88;5069087;28;20419;-76
2022/09/12 11:40:23;;;;;;;14.13;3.10;;;;;;;20.63;55.70;96322.97;5069245;28;20464;-75
2022/09/12 11:42:54;;;;;;;11.15;3.42;;;;;;;20.71;55.85;96321.06;5069525;28;20059;-76
2022/09/12 11:45:28;;;;;;;12.45;3.30;;;;;;;20.73;54.05;96318.72;5069016;28;20048;-75
2022/09/12 11:47:59;;;;;;;11.52;3.58;;;;;;;20.73;52.61;96324.25;5069208;28;20624;-77